サイパン島 の空港の天気 - METARとTAF

サイパン国際空港 ( PGSN / SPN ) - 北マリアナ諸島 サイパン島
飛行場実況気象(Metar)
観測時間09/30 13:54 ChST (09/30 03:54 UTC)
風向・風速西 4m/s
視程10km以上
天気現象
全天の4割程度の雲 雲底高度 610m
全天の4割程度の雲 雲底高度 1430m
全天を覆う雲 雲底高度 1830m
気温28.9℃
湿度88%
気圧1006.7hPa
METARPGSN 300354Z 27008KT 10SM SCT020CB SCT047 OVC060 29/27 A2967 RMK AO2 RAE27 SLP067 VCSH E CB E MOV E P0008 T02890267
過去の天気等 Google飛行場航空写真 Wunderground天気予報

過去48時間のMETAR

飛行場予報(TAF)
発表時間: 9/30 13:31 ChST (9/30 03:31 UTC)
予報対象時間: 30日14時 ChST ~ 1日10時 ChST
風向・風速南西 7m/s
視程10km以上
天気現象周辺でしゅう雨
少しの雲 雲底高度 490m
全天の4割程度の雲 雲底高度 1220m
全天の8割程度の雲 雲底高度 3050m
30日14時 ChST ~ 30日17時 ChST に一時的に
視程8050m
天気現象雷雨
全天の8割程度の積乱雲 雲底高度 460m
PGSN 300331Z 3004/3024 23013KT P6SM VCSH FEW016 SCT040 BKN100
TEMPO 3004/3007 5SM TSRA BKN015CB